sensor_id;sensor_type;location;lat;lon;timestamp;P1;durP1;ratioP1;P2;durP2;ratioP2
46835;SDS011;32573;51.290;6.926;2023-10-31T00:02:24;2.88;;;1.38;;
46835;SDS011;32573;51.290;6.926;2023-10-31T00:04:52;3.17;;;1.50;;
46835;SDS011;32573;51.290;6.926;2023-10-31T00:07:21;3.13;;;1.60;;
46835;SDS011;32573;51.290;6.926;2023-10-31T00:09:50;2.90;;;1.30;;
46835;SDS011;32573;51.290;6.926;2023-10-31T00:12:19;3.00;;;1.55;;
46835;SDS011;32573;51.290;6.926;2023-10-31T00:14:48;2.85;;;1.60;;
46835;SDS011;32573;51.290;6.926;2023-10-31T00:17:17;3.22;;;1.50;;
46835;SDS011;32573;51.290;6.926;2023-10-31T00:19:45;3.95;;;1.95;;
46835;SDS011;32573;51.290;6.926;2023-10-31T00:22:14;3.58;;;1.80;;
46835;SDS011;32573;51.290;6.926;2023-10-31T00:24:42;4.22;;;2.08;;
46835;SDS011;32573;51.290;6.926;2023-10-31T00:27:11;3.60;;;1.80;;
46835;SDS011;32573;51.290;6.926;2023-10-31T00:29:43;3.92;;;2.00;;
46835;SDS011;32573;51.290;6.926;2023-10-31T00:32:11;3.40;;;1.70;;
46835;SDS011;32573;51.290;6.926;2023-10-31T00:34:43;3.55;;;1.88;;
46835;SDS011;32573;51.290;6.926;2023-10-31T00:37:11;3.58;;;1.80;;
46835;SDS011;32573;51.290;6.926;2023-10-31T00:39:40;3.17;;;1.60;;
46835;SDS011;32573;51.290;6.926;2023-10-31T00:42:09;2.90;;;1.30;;
46835;SDS011;32573;51.290;6.926;2023-10-31T00:44:37;3.45;;;1.50;;
46835;SDS011;32573;51.290;6.926;2023-10-31T00:47:07;2.60;;;1.30;;
46835;SDS011;32573;51.290;6.926;2023-10-31T00:49:36;3.33;;;1.45;;
46835;SDS011;32573;51.290;6.926;2023-10-31T00:52:05;2.50;;;1.30;;
46835;SDS011;32573;51.290;6.926;2023-10-31T00:54:33;3.63;;;1.40;;
46835;SDS011;32573;51.290;6.926;2023-10-31T00:57:02;4.20;;;1.98;;
46835;SDS011;32573;51.290;6.926;2023-10-31T00:59:31;3.28;;;1.60;;
46835;SDS011;32573;51.290;6.926;2023-10-31T01:01:59;3.53;;;1.70;;
46835;SDS011;32573;51.290;6.926;2023-10-31T01:04:29;4.10;;;1.92;;
46835;SDS011;32573;51.290;6.926;2023-10-31T01:06:58;3.22;;;1.65;;
46835;SDS011;32573;51.290;6.926;2023-10-31T01:09:27;3.90;;;1.50;;
46835;SDS011;32573;51.290;6.926;2023-10-31T01:11:55;3.22;;;1.20;;
46835;SDS011;32573;51.290;6.926;2023-10-31T01:14:24;2.92;;;1.50;;
46835;SDS011;32573;51.290;6.926;2023-10-31T01:16:53;2.63;;;1.10;;
46835;SDS011;32573;51.290;6.926;2023-10-31T01:19:21;2.55;;;1.15;;
46835;SDS011;32573;51.290;6.926;2023-10-31T01:21:51;3.20;;;1.50;;
46835;SDS011;32573;51.290;6.926;2023-10-31T01:24:20;2.65;;;1.30;;
46835;SDS011;32573;51.290;6.926;2023-10-31T01:26:50;2.53;;;1.20;;
46835;SDS011;32573;51.290;6.926;2023-10-31T01:29:19;2.83;;;1.27;;
46835;SDS011;32573;51.290;6.926;2023-10-31T01:31:48;2.92;;;1.50;;
46835;SDS011;32573;51.290;6.926;2023-10-31T01:34:28;2.80;;;1.23;;
46835;SDS011;32573;51.290;6.926;2023-10-31T01:36:58;3.45;;;1.30;;
46835;SDS011;32573;51.290;6.926;2023-10-31T01:39:27;2.17;;;1.10;;
46835;SDS011;32573;51.290;6.926;2023-10-31T01:41:55;3.40;;;1.33;;
46835;SDS011;32573;51.290;6.926;2023-10-31T01:44:24;2.78;;;1.27;;
46835;SDS011;32573;51.290;6.926;2023-10-31T01:46:53;2.83;;;1.30;;
46835;SDS011;32573;51.290;6.926;2023-10-31T01:49:23;2.95;;;1.30;;
46835;SDS011;32573;51.290;6.926;2023-10-31T01:51:52;2.22;;;1.05;;
46835;SDS011;32573;51.290;6.926;2023-10-31T01:54:22;2.38;;;1.00;;
46835;SDS011;32573;51.290;6.926;2023-10-31T01:56:51;2.50;;;1.10;;
46835;SDS011;32573;51.290;6.926;2023-10-31T01:59:23;2.45;;;1.10;;
46835;SDS011;32573;51.290;6.926;2023-10-31T02:01:52;2.90;;;1.10;;
46835;SDS011;32573;51.290;6.926;2023-10-31T02:04:21;2.13;;;1.08;;
46835;SDS011;32573;51.290;6.926;2023-10-31T02:06:49;2.75;;;1.30;;
46835;SDS011;32573;51.290;6.926;2023-10-31T02:09:19;2.28;;;0.95;;
46835;SDS011;32573;51.290;6.926;2023-10-31T02:11:53;3.00;;;1.20;;
46835;SDS011;32573;51.290;6.926;2023-10-31T02:14:21;2.65;;;1.20;;
46835;SDS011;32573;51.290;6.926;2023-10-31T02:16:50;2.97;;;1.30;;
46835;SDS011;32573;51.290;6.926;2023-10-31T02:19:19;2.90;;;1.30;;
46835;SDS011;32573;51.290;6.926;2023-10-31T02:21:50;3.00;;;1.38;;
46835;SDS011;32573;51.290;6.926;2023-10-31T02:24:18;3.08;;;1.35;;
46835;SDS011;32573;51.290;6.926;2023-10-31T02:26:47;2.65;;;1.30;;
46835;SDS011;32573;51.290;6.926;2023-10-31T02:29:16;4.88;;;1.70;;
46835;SDS011;32573;51.290;6.926;2023-10-31T02:31:44;3.22;;;1.40;;
46835;SDS011;32573;51.290;6.926;2023-10-31T02:34:13;3.05;;;1.55;;
46835;SDS011;32573;51.290;6.926;2023-10-31T02:36:42;3.42;;;1.40;;
46835;SDS011;32573;51.290;6.926;2023-10-31T02:39:12;4.45;;;1.90;;
46835;SDS011;32573;51.290;6.926;2023-10-31T02:41:41;4.03;;;1.90;;
46835;SDS011;32573;51.290;6.926;2023-10-31T02:44:09;3.58;;;1.70;;
46835;SDS011;32573;51.290;6.926;2023-10-31T02:46:38;4.32;;;1.90;;
46835;SDS011;32573;51.290;6.926;2023-10-31T02:49:06;4.07;;;2.00;;
46835;SDS011;32573;51.290;6.926;2023-10-31T02:51:37;3.72;;;1.70;;
46835;SDS011;32573;51.290;6.926;2023-10-31T02:54:05;3.28;;;1.58;;
46835;SDS011;32573;51.290;6.926;2023-10-31T02:56:36;4.63;;;2.28;;
46835;SDS011;32573;51.290;6.926;2023-10-31T02:59:04;5.57;;;2.38;;
46835;SDS011;32573;51.290;6.926;2023-10-31T03:01:33;5.07;;;2.33;;
46835;SDS011;32573;51.290;6.926;2023-10-31T03:04:03;4.45;;;2.10;;
46835;SDS011;32573;51.290;6.926;2023-10-31T03:06:32;6.53;;;2.75;;
46835;SDS011;32573;51.290;6.926;2023-10-31T03:09:01;4.68;;;2.20;;
46835;SDS011;32573;51.290;6.926;2023-10-31T03:11:29;4.38;;;2.30;;
46835;SDS011;32573;51.290;6.926;2023-10-31T03:14:00;3.60;;;1.70;;
46835;SDS011;32573;51.290;6.926;2023-10-31T03:16:29;6.68;;;2.42;;
46835;SDS011;32573;51.290;6.926;2023-10-31T03:18:58;6.30;;;2.58;;
46835;SDS011;32573;51.290;6.926;2023-10-31T03:21:27;8.70;;;3.28;;
46835;SDS011;32573;51.290;6.926;2023-10-31T03:23:55;5.22;;;2.50;;
46835;SDS011;32573;51.290;6.926;2023-10-31T03:26:24;5.82;;;2.60;;
46835;SDS011;32573;51.290;6.926;2023-10-31T03:28:53;6.10;;;2.63;;
46835;SDS011;32573;51.290;6.926;2023-10-31T03:31:25;5.55;;;2.70;;
46835;SDS011;32573;51.290;6.926;2023-10-31T03:33:54;5.72;;;2.60;;
46835;SDS011;32573;51.290;6.926;2023-10-31T03:36:23;4.90;;;2.20;;
46835;SDS011;32573;51.290;6.926;2023-10-31T03:38:52;6.55;;;2.67;;
46835;SDS011;32573;51.290;6.926;2023-10-31T03:41:20;6.13;;;2.40;;
46835;SDS011;32573;51.290;6.926;2023-10-31T03:43:50;4.20;;;2.35;;
46835;SDS011;32573;51.290;6.926;2023-10-31T03:46:19;5.43;;;2.30;;
46835;SDS011;32573;51.290;6.926;2023-10-31T03:48:49;4.32;;;2.00;;
46835;SDS011;32573;51.290;6.926;2023-10-31T03:51:17;4.75;;;2.20;;
46835;SDS011;32573;51.290;6.926;2023-10-31T03:53:46;5.13;;;2.40;;
46835;SDS011;32573;51.290;6.926;2023-10-31T03:56:16;5.00;;;2.30;;
46835;SDS011;32573;51.290;6.926;2023-10-31T03:58:44;5.07;;;2.38;;
46835;SDS011;32573;51.290;6.926;2023-10-31T04:01:13;6.18;;;2.72;;
46835;SDS011;32573;51.290;6.926;2023-10-31T04:03:42;4.55;;;1.92;;
46835;SDS011;32573;51.290;6.926;2023-10-31T04:06:13;4.57;;;2.28;;
46835;SDS011;32573;51.290;6.926;2023-10-31T04:08:43;4.78;;;2.42;;
46835;SDS011;32573;51.290;6.926;2023-10-31T04:11:12;4.53;;;2.00;;
46835;SDS011;32573;51.290;6.926;2023-10-31T04:13:41;4.68;;;2.22;;
46835;SDS011;32573;51.290;6.926;2023-10-31T04:16:09;6.15;;;2.53;;
46835;SDS011;32573;51.290;6.926;2023-10-31T04:18:38;4.90;;;2.10;;
46835;SDS011;32573;51.290;6.926;2023-10-31T04:21:07;5.45;;;2.45;;
46835;SDS011;32573;51.290;6.926;2023-10-31T04:23:37;3.75;;;1.70;;
46835;SDS011;32573;51.290;6.926;2023-10-31T04:26:06;4.43;;;1.85;;
46835;SDS011;32573;51.290;6.926;2023-10-31T04:28:35;4.15;;;2.13;;
46835;SDS011;32573;51.290;6.926;2023-10-31T04:31:03;3.55;;;1.63;;
46835;SDS011;32573;51.290;6.926;2023-10-31T04:33:32;4.63;;;2.00;;
46835;SDS011;32573;51.290;6.926;2023-10-31T04:36:01;4.93;;;2.05;;
46835;SDS011;32573;51.290;6.926;2023-10-31T04:38:29;3.97;;;1.85;;
46835;SDS011;32573;51.290;6.926;2023-10-31T04:40:59;4.40;;;1.60;;
46835;SDS011;32573;51.290;6.926;2023-10-31T04:43:28;5.10;;;2.60;;
46835;SDS011;32573;51.290;6.926;2023-10-31T04:45:57;3.33;;;1.60;;
46835;SDS011;32573;51.290;6.926;2023-10-31T04:48:25;4.00;;;1.67;;
46835;SDS011;32573;51.290;6.926;2023-10-31T04:50:54;4.80;;;2.30;;
46835;SDS011;32573;51.290;6.926;2023-10-31T04:53:23;4.13;;;1.70;;
46835;SDS011;32573;51.290;6.926;2023-10-31T04:55:52;5.03;;;1.85;;
46835;SDS011;32573;51.290;6.926;2023-10-31T04:58:22;4.35;;;1.88;;
46835;SDS011;32573;51.290;6.926;2023-10-31T05:00:51;3.83;;;1.70;;
46835;SDS011;32573;51.290;6.926;2023-10-31T05:03:19;3.75;;;1.73;;
46835;SDS011;32573;51.290;6.926;2023-10-31T05:05:48;4.32;;;2.00;;
46835;SDS011;32573;51.290;6.926;2023-10-31T05:08:17;4.20;;;1.95;;
46835;SDS011;32573;51.290;6.926;2023-10-31T05:10:45;3.92;;;1.75;;
46835;SDS011;32573;51.290;6.926;2023-10-31T05:13:14;3.72;;;1.88;;
46835;SDS011;32573;51.290;6.926;2023-10-31T05:15:44;4.22;;;1.77;;
46835;SDS011;32573;51.290;6.926;2023-10-31T05:18:13;4.10;;;2.00;;
46835;SDS011;32573;51.290;6.926;2023-10-31T05:20:42;3.38;;;1.60;;
46835;SDS011;32573;51.290;6.926;2023-10-31T05:23:10;4.82;;;2.35;;
46835;SDS011;32573;51.290;6.926;2023-10-31T05:25:39;4.10;;;1.75;;
46835;SDS011;32573;51.290;6.926;2023-10-31T05:28:08;3.53;;;1.80;;
46835;SDS011;32573;51.290;6.926;2023-10-31T05:30:36;4.07;;;1.85;;
46835;SDS011;32573;51.290;6.926;2023-10-31T05:33:06;4.28;;;2.22;;
46835;SDS011;32573;51.290;6.926;2023-10-31T05:35:35;4.00;;;1.90;;
46835;SDS011;32573;51.290;6.926;2023-10-31T05:38:04;3.53;;;1.70;;
46835;SDS011;32573;51.290;6.926;2023-10-31T05:40:33;3.70;;;1.70;;
46835;SDS011;32573;51.290;6.926;2023-10-31T05:43:02;4.63;;;2.00;;
46835;SDS011;32573;51.290;6.926;2023-10-31T05:45:31;5.50;;;2.78;;
46835;SDS011;32573;51.290;6.926;2023-10-31T05:48:01;4.18;;;2.17;;
46835;SDS011;32573;51.290;6.926;2023-10-31T05:50:32;3.92;;;2.10;;
46835;SDS011;32573;51.290;6.926;2023-10-31T05:53:00;4.40;;;2.50;;
46835;SDS011;32573;51.290;6.926;2023-10-31T05:55:29;5.05;;;2.47;;
46835;SDS011;32573;51.290;6.926;2023-10-31T05:57:58;4.28;;;2.08;;
46835;SDS011;32573;51.290;6.926;2023-10-31T06:00:26;4.75;;;2.60;;
46835;SDS011;32573;51.290;6.926;2023-10-31T06:02:55;4.93;;;2.28;;
46835;SDS011;32573;51.290;6.926;2023-10-31T06:05:24;4.53;;;2.40;;
46835;SDS011;32573;51.290;6.926;2023-10-31T06:07:54;3.88;;;2.13;;
46835;SDS011;32573;51.290;6.926;2023-10-31T06:10:23;4.22;;;1.95;;
46835;SDS011;32573;51.290;6.926;2023-10-31T06:12:51;3.85;;;2.00;;
46835;SDS011;32573;51.290;6.926;2023-10-31T06:15:20;3.75;;;1.80;;
46835;SDS011;32573;51.290;6.926;2023-10-31T06:17:49;3.83;;;1.80;;
46835;SDS011;32573;51.290;6.926;2023-10-31T06:20:17;4.03;;;1.83;;
46835;SDS011;32573;51.290;6.926;2023-10-31T06:22:46;4.30;;;2.20;;
46835;SDS011;32573;51.290;6.926;2023-10-31T06:25:16;4.75;;;2.00;;
46835;SDS011;32573;51.290;6.926;2023-10-31T06:27:45;4.13;;;2.17;;
46835;SDS011;32573;51.290;6.926;2023-10-31T06:30:13;3.75;;;1.88;;
46835;SDS011;32573;51.290;6.926;2023-10-31T06:32:54;3.90;;;2.13;;
46835;SDS011;32573;51.290;6.926;2023-10-31T06:35:23;4.10;;;1.90;;
46835;SDS011;32573;51.290;6.926;2023-10-31T06:37:53;4.05;;;2.08;;
46835;SDS011;32573;51.290;6.926;2023-10-31T06:40:25;4.03;;;1.90;;
46835;SDS011;32573;51.290;6.926;2023-10-31T06:42:54;5.65;;;2.38;;
46835;SDS011;32573;51.290;6.926;2023-10-31T06:45:22;6.00;;;2.50;;
46835;SDS011;32573;51.290;6.926;2023-10-31T06:47:51;4.45;;;2.28;;
46835;SDS011;32573;51.290;6.926;2023-10-31T06:50:20;4.78;;;2.10;;
46835;SDS011;32573;51.290;6.926;2023-10-31T06:52:49;3.88;;;1.92;;
46835;SDS011;32573;51.290;6.926;2023-10-31T06:55:18;4.28;;;2.10;;
46835;SDS011;32573;51.290;6.926;2023-10-31T06:57:48;4.97;;;2.40;;
46835;SDS011;32573;51.290;6.926;2023-10-31T07:00:17;5.45;;;2.80;;
46835;SDS011;32573;51.290;6.926;2023-10-31T07:02:45;4.88;;;2.50;;
46835;SDS011;32573;51.290;6.926;2023-10-31T07:05:14;6.32;;;3.05;;
46835;SDS011;32573;51.290;6.926;2023-10-31T07:07:44;5.90;;;3.08;;
46835;SDS011;32573;51.290;6.926;2023-10-31T07:10:12;5.38;;;2.88;;
46835;SDS011;32573;51.290;6.926;2023-10-31T07:12:41;4.93;;;2.50;;
46835;SDS011;32573;51.290;6.926;2023-10-31T07:15:11;4.57;;;2.17;;
46835;SDS011;32573;51.290;6.926;2023-10-31T07:17:40;5.32;;;2.70;;
46835;SDS011;32573;51.290;6.926;2023-10-31T07:20:09;5.32;;;2.55;;
46835;SDS011;32573;51.290;6.926;2023-10-31T07:22:38;5.75;;;2.70;;
46835;SDS011;32573;51.290;6.926;2023-10-31T07:25:07;4.32;;;2.13;;
46835;SDS011;32573;51.290;6.926;2023-10-31T07:27:36;4.90;;;2.60;;
46835;SDS011;32573;51.290;6.926;2023-10-31T07:30:05;5.47;;;2.72;;
46835;SDS011;32573;51.290;6.926;2023-10-31T07:32:36;4.32;;;2.13;;
46835;SDS011;32573;51.290;6.926;2023-10-31T07:35:05;6.13;;;2.97;;
46835;SDS011;32573;51.290;6.926;2023-10-31T07:37:34;4.75;;;2.40;;
46835;SDS011;32573;51.290;6.926;2023-10-31T07:40:03;4.60;;;2.13;;
46835;SDS011;32573;51.290;6.926;2023-10-31T07:42:32;5.70;;;2.78;;
46835;SDS011;32573;51.290;6.926;2023-10-31T07:45:01;4.45;;;2.17;;
46835;SDS011;32573;51.290;6.926;2023-10-31T07:47:29;4.65;;;2.50;;
46835;SDS011;32573;51.290;6.926;2023-10-31T07:49:59;5.65;;;2.60;;
46835;SDS011;32573;51.290;6.926;2023-10-31T07:52:28;4.80;;;2.65;;
46835;SDS011;32573;51.290;6.926;2023-10-31T07:54:56;4.95;;;2.22;;
46835;SDS011;32573;51.290;6.926;2023-10-31T07:57:25;5.32;;;2.75;;
46835;SDS011;32573;51.290;6.926;2023-10-31T07:59:53;5.20;;;2.80;;
46835;SDS011;32573;51.290;6.926;2023-10-31T08:02:22;4.60;;;2.53;;
46835;SDS011;32573;51.290;6.926;2023-10-31T08:04:50;4.75;;;2.70;;
46835;SDS011;32573;51.290;6.926;2023-10-31T08:07:20;5.15;;;2.53;;
46835;SDS011;32573;51.290;6.926;2023-10-31T08:09:50;5.25;;;2.65;;
46835;SDS011;32573;51.290;6.926;2023-10-31T08:12:19;5.72;;;2.92;;
46835;SDS011;32573;51.290;6.926;2023-10-31T08:14:48;4.57;;;2.38;;
46835;SDS011;32573;51.290;6.926;2023-10-31T08:17:16;5.00;;;2.65;;
46835;SDS011;32573;51.290;6.926;2023-10-31T08:19:45;4.30;;;2.30;;
46835;SDS011;32573;51.290;6.926;2023-10-31T08:22:14;4.97;;;2.55;;
46835;SDS011;32573;51.290;6.926;2023-10-31T08:24:44;4.88;;;2.20;;
46835;SDS011;32573;51.290;6.926;2023-10-31T08:27:13;4.93;;;2.35;;
46835;SDS011;32573;51.290;6.926;2023-10-31T08:29:41;4.40;;;2.17;;
46835;SDS011;32573;51.290;6.926;2023-10-31T08:32:10;5.43;;;2.13;;
46835;SDS011;32573;51.290;6.926;2023-10-31T08:34:39;4.55;;;2.25;;
46835;SDS011;32573;51.290;6.926;2023-10-31T08:37:07;3.83;;;2.10;;
46835;SDS011;32573;51.290;6.926;2023-10-31T08:39:36;4.13;;;1.95;;
46835;SDS011;32573;51.290;6.926;2023-10-31T08:42:05;4.40;;;2.10;;
46835;SDS011;32573;51.290;6.926;2023-10-31T08:44:34;4.57;;;2.10;;
46835;SDS011;32573;51.290;6.926;2023-10-31T08:47:04;3.50;;;1.80;;
46835;SDS011;32573;51.290;6.926;2023-10-31T08:49:33;4.07;;;2.00;;
46835;SDS011;32573;51.290;6.926;2023-10-31T08:52:02;5.28;;;2.70;;
46835;SDS011;32573;51.290;6.926;2023-10-31T08:54:31;4.40;;;2.13;;
46835;SDS011;32573;51.290;6.926;2023-10-31T08:56:59;4.22;;;2.10;;
46835;SDS011;32573;51.290;6.926;2023-10-31T08:59:29;4.07;;;2.00;;
46835;SDS011;32573;51.290;6.926;2023-10-31T09:01:58;5.13;;;1.92;;
46835;SDS011;32573;51.290;6.926;2023-10-31T09:04:27;4.28;;;2.28;;
46835;SDS011;32573;51.290;6.926;2023-10-31T09:06:55;4.03;;;1.92;;
46835;SDS011;32573;51.290;6.926;2023-10-31T09:09:25;4.20;;;2.10;;
46835;SDS011;32573;51.290;6.926;2023-10-31T09:11:53;3.75;;;1.80;;
46835;SDS011;32573;51.290;6.926;2023-10-31T09:14:22;4.25;;;1.90;;
46835;SDS011;32573;51.290;6.926;2023-10-31T09:16:52;4.10;;;2.00;;
46835;SDS011;32573;51.290;6.926;2023-10-31T09:19:20;3.95;;;2.00;;
46835;SDS011;32573;51.290;6.926;2023-10-31T09:21:52;4.45;;;2.25;;
46835;SDS011;32573;51.290;6.926;2023-10-31T09:24:20;3.53;;;1.70;;
46835;SDS011;32573;51.290;6.926;2023-10-31T09:26:51;4.00;;;1.85;;
46835;SDS011;32573;51.290;6.926;2023-10-31T09:29:19;5.03;;;2.63;;
46835;SDS011;32573;51.290;6.926;2023-10-31T09:31:57;4.65;;;2.40;;
46835;SDS011;32573;51.290;6.926;2023-10-31T09:34:26;4.30;;;2.20;;
46835;SDS011;32573;51.290;6.926;2023-10-31T09:36:55;4.13;;;2.13;;
46835;SDS011;32573;51.290;6.926;2023-10-31T09:39:23;5.53;;;2.47;;
46835;SDS011;32573;51.290;6.926;2023-10-31T09:41:52;5.40;;;2.72;;
46835;SDS011;32573;51.290;6.926;2023-10-31T09:44:21;4.60;;;2.28;;
46835;SDS011;32573;51.290;6.926;2023-10-31T09:46:51;4.40;;;2.35;;
46835;SDS011;32573;51.290;6.926;2023-10-31T09:49:21;4.38;;;2.25;;
46835;SDS011;32573;51.290;6.926;2023-10-31T09:51:51;4.93;;;2.30;;
46835;SDS011;32573;51.290;6.926;2023-10-31T09:54:20;4.97;;;2.70;;
46835;SDS011;32573;51.290;6.926;2023-10-31T09:56:50;5.35;;;2.75;;
46835;SDS011;32573;51.290;6.926;2023-10-31T09:59:19;5.35;;;2.67;;
46835;SDS011;32573;51.290;6.926;2023-10-31T10:01:48;5.50;;;3.08;;
46835;SDS011;32573;51.290;6.926;2023-10-31T10:04:17;4.10;;;2.33;;
46835;SDS011;32573;51.290;6.926;2023-10-31T10:06:51;4.55;;;2.13;;
46835;SDS011;32573;51.290;6.926;2023-10-31T10:09:21;4.33;;;2.20;;
46835;SDS011;32573;51.290;6.926;2023-10-31T10:11:50;4.30;;;2.10;;
46835;SDS011;32573;51.290;6.926;2023-10-31T10:14:22;3.95;;;2.03;;
46835;SDS011;32573;51.290;6.926;2023-10-31T10:16:52;4.97;;;1.98;;
46835;SDS011;32573;51.290;6.926;2023-10-31T10:19:21;4.35;;;2.08;;
46835;SDS011;32573;51.290;6.926;2023-10-31T10:21:52;3.85;;;1.90;;
46835;SDS011;32573;51.290;6.926;2023-10-31T10:24:22;4.43;;;1.95;;
46835;SDS011;32573;51.290;6.926;2023-10-31T10:26:51;4.38;;;2.03;;
46835;SDS011;32573;51.290;6.926;2023-10-31T10:29:20;3.97;;;1.95;;
46835;SDS011;32573;51.290;6.926;2023-10-31T10:31:49;4.55;;;1.77;;
46835;SDS011;32573;51.290;6.926;2023-10-31T10:34:18;4.55;;;1.80;;
46835;SDS011;32573;51.290;6.926;2023-10-31T10:36:47;4.28;;;2.08;;
46835;SDS011;32573;51.290;6.926;2023-10-31T10:39:19;4.25;;;1.80;;
46835;SDS011;32573;51.290;6.926;2023-10-31T10:41:51;4.15;;;2.05;;
46835;SDS011;32573;51.290;6.926;2023-10-31T10:44:25;4.10;;;1.83;;
46835;SDS011;32573;51.290;6.926;2023-10-31T10:47:01;3.75;;;1.67;;
46835;SDS011;32573;51.290;6.926;2023-10-31T10:49:32;3.67;;;1.70;;
46835;SDS011;32573;51.290;6.926;2023-10-31T10:52:08;3.60;;;1.67;;
46835;SDS011;32573;51.290;6.926;2023-10-31T10:54:48;3.63;;;1.65;;
46835;SDS011;32573;51.290;6.926;2023-10-31T10:57:24;3.53;;;1.40;;
46835;SDS011;32573;51.290;6.926;2023-10-31T11:00:02;2.85;;;1.40;;
46835;SDS011;32573;51.290;6.926;2023-10-31T11:02:33;3.25;;;1.30;;
46835;SDS011;32573;51.290;6.926;2023-10-31T11:05:05;3.53;;;1.58;;
46835;SDS011;32573;51.290;6.926;2023-10-31T11:07:35;3.00;;;1.20;;
46835;SDS011;32573;51.290;6.926;2023-10-31T11:10:07;2.90;;;1.20;;
46835;SDS011;32573;51.290;6.926;2023-10-31T11:12:36;3.13;;;1.30;;
46835;SDS011;32573;51.290;6.926;2023-10-31T11:15:06;2.75;;;1.30;;
46835;SDS011;32573;51.290;6.926;2023-10-31T11:17:38;4.03;;;1.40;;
46835;SDS011;32573;51.290;6.926;2023-10-31T11:20:09;2.42;;;1.10;;
46835;SDS011;32573;51.290;6.926;2023-10-31T11:22:42;2.35;;;1.10;;
46835;SDS011;32573;51.290;6.926;2023-10-31T11:25:14;3.08;;;1.20;;
46835;SDS011;32573;51.290;6.926;2023-10-31T11:27:56;2.50;;;1.20;;
46835;SDS011;32573;51.290;6.926;2023-10-31T11:30:38;3.70;;;1.10;;
46835;SDS011;32573;51.290;6.926;2023-10-31T11:33:11;2.20;;;1.10;;
46835;SDS011;32573;51.290;6.926;2023-10-31T11:35:40;2.90;;;1.27;;
46835;SDS011;32573;51.290;6.926;2023-10-31T11:38:11;3.30;;;1.30;;
46835;SDS011;32573;51.290;6.926;2023-10-31T11:40:57;3.03;;;1.30;;
46835;SDS011;32573;51.290;6.926;2023-10-31T11:46:22;2.47;;;1.10;;
46835;SDS011;32573;51.290;6.926;2023-10-31T11:48:53;2.90;;;1.20;;
46835;SDS011;32573;51.290;6.926;2023-10-31T11:51:23;2.10;;;1.10;;
46835;SDS011;32573;51.290;6.926;2023-10-31T11:53:52;2.88;;;1.20;;
46835;SDS011;32573;51.290;6.926;2023-10-31T11:56:22;2.65;;;0.95;;
46835;SDS011;32573;51.290;6.926;2023-10-31T11:58:57;2.95;;;1.00;;
46835;SDS011;32573;51.290;6.926;2023-10-31T12:01:27;3.20;;;1.15;;
46835;SDS011;32573;51.290;6.926;2023-10-31T12:03:56;2.85;;;1.02;;
46835;SDS011;32573;51.290;6.926;2023-10-31T12:06:25;2.53;;;1.10;;
46835;SDS011;32573;51.290;6.926;2023-10-31T12:08:53;3.25;;;1.20;;
46835;SDS011;32573;51.290;6.926;2023-10-31T12:11:29;2.72;;;1.20;;
46835;SDS011;32573;51.290;6.926;2023-10-31T12:13:58;3.58;;;1.20;;
46835;SDS011;32573;51.290;6.926;2023-10-31T12:16:29;2.22;;;1.10;;
46835;SDS011;32573;51.290;6.926;2023-10-31T12:18:59;2.70;;;1.20;;
46835;SDS011;32573;51.290;6.926;2023-10-31T12:21:39;2.90;;;1.08;;
46835;SDS011;32573;51.290;6.926;2023-10-31T12:24:10;2.90;;;1.15;;
46835;SDS011;32573;51.290;6.926;2023-10-31T12:26:41;2.33;;;1.10;;
46835;SDS011;32573;51.290;6.926;2023-10-31T12:29:14;2.67;;;1.20;;
46835;SDS011;32573;51.290;6.926;2023-10-31T12:31:45;2.90;;;1.30;;
46835;SDS011;32573;51.290;6.926;2023-10-31T12:34:15;2.50;;;1.00;;
46835;SDS011;32573;51.290;6.926;2023-10-31T12:36:46;2.35;;;1.10;;
46835;SDS011;32573;51.290;6.926;2023-10-31T12:39:16;2.00;;;1.08;;
46835;SDS011;32573;51.290;6.926;2023-10-31T12:41:48;1.90;;;1.00;;
46835;SDS011;32573;51.290;6.926;2023-10-31T12:44:22;3.00;;;1.10;;
46835;SDS011;32573;51.290;6.926;2023-10-31T12:46:54;3.03;;;1.13;;
46835;SDS011;32573;51.290;6.926;2023-10-31T12:49:23;2.05;;;1.10;;
46835;SDS011;32573;51.290;6.926;2023-10-31T12:51:55;2.20;;;1.08;;
46835;SDS011;32573;51.290;6.926;2023-10-31T12:54:28;2.50;;;1.17;;
46835;SDS011;32573;51.290;6.926;2023-10-31T12:57:02;2.70;;;1.10;;
46835;SDS011;32573;51.290;6.926;2023-10-31T12:59:32;3.97;;;1.23;;
46835;SDS011;32573;51.290;6.926;2023-10-31T13:02:02;2.45;;;1.10;;
46835;SDS011;32573;51.290;6.926;2023-10-31T13:04:32;2.78;;;1.10;;
46835;SDS011;32573;51.290;6.926;2023-10-31T13:07:02;2.13;;;1.08;;
46835;SDS011;32573;51.290;6.926;2023-10-31T13:09:32;2.40;;;1.20;;
46835;SDS011;32573;51.290;6.926;2023-10-31T13:12:04;3.47;;;1.30;;
46835;SDS011;32573;51.290;6.926;2023-10-31T13:14:34;3.08;;;1.20;;
46835;SDS011;32573;51.290;6.926;2023-10-31T13:17:04;2.22;;;1.20;;
46835;SDS011;32573;51.290;6.926;2023-10-31T13:19:32;3.83;;;1.15;;
46835;SDS011;32573;51.290;6.926;2023-10-31T13:22:01;2.50;;;1.20;;
46835;SDS011;32573;51.290;6.926;2023-10-31T13:24:30;3.20;;;1.30;;
46835;SDS011;32573;51.290;6.926;2023-10-31T13:26:58;2.83;;;1.27;;
46835;SDS011;32573;51.290;6.926;2023-10-31T13:29:31;3.22;;;1.20;;
46835;SDS011;32573;51.290;6.926;2023-10-31T13:32:00;4.13;;;1.13;;
46835;SDS011;32573;51.290;6.926;2023-10-31T13:34:28;3.05;;;1.20;;
46835;SDS011;32573;51.290;6.926;2023-10-31T13:36:59;2.80;;;1.20;;
46835;SDS011;32573;51.290;6.926;2023-10-31T13:39:29;2.28;;;1.10;;
46835;SDS011;32573;51.290;6.926;2023-10-31T13:41:57;2.08;;;1.00;;
46835;SDS011;32573;51.290;6.926;2023-10-31T13:44:26;2.28;;;1.10;;
46835;SDS011;32573;51.290;6.926;2023-10-31T13:46:56;2.17;;;1.10;;
46835;SDS011;32573;51.290;6.926;2023-10-31T13:49:24;3.13;;;1.10;;
46835;SDS011;32573;51.290;6.926;2023-10-31T13:51:53;2.35;;;1.00;;
46835;SDS011;32573;51.290;6.926;2023-10-31T13:54:22;2.05;;;1.00;;
46835;SDS011;32573;51.290;6.926;2023-10-31T13:56:50;1.80;;;0.90;;
46835;SDS011;32573;51.290;6.926;2023-10-31T13:59:19;2.25;;;1.02;;
46835;SDS011;32573;51.290;6.926;2023-10-31T14:01:48;2.83;;;1.00;;
46835;SDS011;32573;51.290;6.926;2023-10-31T14:04:18;1.67;;;0.90;;
46835;SDS011;32573;51.290;6.926;2023-10-31T14:06:47;2.10;;;1.00;;
46835;SDS011;32573;51.290;6.926;2023-10-31T14:09:16;2.35;;;1.20;;
46835;SDS011;32573;51.290;6.926;2023-10-31T14:11:44;3.47;;;1.20;;
46835;SDS011;32573;51.290;6.926;2023-10-31T14:14:13;2.70;;;1.20;;
46835;SDS011;32573;51.290;6.926;2023-10-31T14:16:42;2.42;;;1.00;;
46835;SDS011;32573;51.290;6.926;2023-10-31T14:19:12;2.10;;;0.90;;
46835;SDS011;32573;51.290;6.926;2023-10-31T14:21:42;2.92;;;1.10;;
46835;SDS011;32573;51.290;6.926;2023-10-31T14:24:11;2.78;;;1.00;;
46835;SDS011;32573;51.290;6.926;2023-10-31T14:26:40;2.28;;;1.00;;
46835;SDS011;32573;51.290;6.926;2023-10-31T14:29:11;1.92;;;0.88;;
46835;SDS011;32573;51.290;6.926;2023-10-31T14:31:40;2.08;;;0.90;;
46835;SDS011;32573;51.290;6.926;2023-10-31T14:34:09;2.03;;;1.00;;
46835;SDS011;32573;51.290;6.926;2023-10-31T14:36:38;2.55;;;0.98;;
46835;SDS011;32573;51.290;6.926;2023-10-31T14:39:09;2.08;;;0.90;;
46835;SDS011;32573;51.290;6.926;2023-10-31T14:41:38;2.63;;;0.95;;
46835;SDS011;32573;51.290;6.926;2023-10-31T14:44:07;2.20;;;0.90;;
46835;SDS011;32573;51.290;6.926;2023-10-31T14:46:36;2.03;;;0.90;;
46835;SDS011;32573;51.290;6.926;2023-10-31T14:49:05;2.53;;;1.10;;
46835;SDS011;32573;51.290;6.926;2023-10-31T14:51:33;1.60;;;0.82;;
46835;SDS011;32573;51.290;6.926;2023-10-31T14:54:02;2.13;;;0.80;;
46835;SDS011;32573;51.290;6.926;2023-10-31T14:56:32;1.98;;;0.90;;
46835;SDS011;32573;51.290;6.926;2023-10-31T14:59:02;2.30;;;0.90;;
46835;SDS011;32573;51.290;6.926;2023-10-31T15:01:31;1.48;;;0.80;;
46835;SDS011;32573;51.290;6.926;2023-10-31T15:04:00;2.42;;;0.85;;
46835;SDS011;32573;51.290;6.926;2023-10-31T15:06:29;1.38;;;0.80;;